Trine Charlotte — LMRY — position and weather

sailwx.info

Track history (hours):
 
Tides and Currents Weather Stations Pressure Air Temp Water Temp Dewpoint Dewpoint Depression Visibility Wind Speed Wind Dir Waves Ship Positions

Trine Charlotte

Last reported at 2016-May-02 05:24 UTC. Time now 2016-May-03 08:46 UTC.
Position N 69°19' E 017°60'.

Length 66 m; draft 5 m.

Type: Cargo ship. MMSI: 257233000.

Date/timePositionNaut miles runAvg speedWind from/ knotsBaromVisibWave heightAir tempDewpointWater temp
2016-May-02 05:24N 69°19' E 017°60'6 7.1
2016-May-02 04:33N 69°13' E 018°03'1 0.5
2016-May-02 03:33N 69°13' E 018°04'5 5.0
2016-May-02 02:33N 69°10' E 017°54'9 8.8
2016-May-02 01:33N 69°06' E 017°31'10 8.3
2016-May-02 00:25N 68°59' E 017°13'96 7.4
2016-May-01 11:29N 67°44' E 014°31'11 9.1
2016-May-01 10:14N 67°32' E 014°30'6 9.2
2016-May-01 09:33N 67°26' E 014°28'9 8.8
2016-May-01 08:33N 67°19' E 014°17'9 9.0
2016-May-01 07:33N 67°11' E 014°05'9 9.4
2016-May-01 06:33N 67°03' E 013°51'9 9.1
2016-May-01 05:33N 66°58' E 013°32'8 8.5
2016-May-01 04:33N 66°51' E 013°19'9 9.0
2016-May-01 03:33N 66°43' E 013°10'12 8.6
2016-May-01 02:06N 66°31' E 012°58'5 9.4
2016-May-01 01:33N 66°26' E 012°60'20 9.1
2016-Apr-30 23:22N 66°07' E 012°45'62 9.0
2016-Apr-30 16:30N 65°10' E 011°51'9 9.0
2016-Apr-30 15:33N 65°02' E 011°42'8 8.4
2016-Apr-30 14:33N 64°56' E 011°27'8 7.7
2016-Apr-30 13:33N 64°51' E 011°14'9 9.1
2016-Apr-30 12:33N 64°45' E 010°59'55 6.6
2016-Apr-30 04:10N 63°59' E 009°47'5 8.4
2016-Apr-30 03:33N 63°54' E 009°46'9 8.6
2016-Apr-30 02:33N 63°47' E 009°34'9 8.6
2016-Apr-30 01:33N 63°39' E 009°29'9 7.6
2016-Apr-30 00:26N 63°33' E 009°16'8 8.9
2016-Apr-29 23:33N 63°29' E 009°01'  
Track history (hours):
 
Tides and Currents Weather Stations Pressure Air Temp Water Temp Dewpoint Dewpoint Depression Visibility Wind Speed Wind Dir Waves Ship Positions

Trine Charlotte

Last reported at 2016-May-02 05:24 UTC. Time now 2016-May-03 08:46 UTC.
Position N 69°19' E 017°60'.

Length 66 m; draft 5 m.

Type: Cargo ship. MMSI: 257233000.

Date/timePositionNaut miles runAvg speedWind from/ knotsBaromVisibWave heightAir tempDewpointWater temp
2016-May-02 05:24N 69°19' E 017°60'6 7.1
2016-May-02 04:33N 69°13' E 018°03'1 0.5
2016-May-02 03:33N 69°13' E 018°04'5 5.0
2016-May-02 02:33N 69°10' E 017°54'9 8.8
2016-May-02 01:33N 69°06' E 017°31'10 8.3
2016-May-02 00:25N 68°59' E 017°13'96 7.4
2016-May-01 11:29N 67°44' E 014°31'11 9.1
2016-May-01 10:14N 67°32' E 014°30'6 9.2
2016-May-01 09:33N 67°26' E 014°28'9 8.8
2016-May-01 08:33N 67°19' E 014°17'9 9.0
2016-May-01 07:33N 67°11' E 014°05'9 9.4
2016-May-01 06:33N 67°03' E 013°51'9 9.1
2016-May-01 05:33N 66°58' E 013°32'8 8.5
2016-May-01 04:33N 66°51' E 013°19'9 9.0
2016-May-01 03:33N 66°43' E 013°10'12 8.6
2016-May-01 02:06N 66°31' E 012°58'5 9.4
2016-May-01 01:33N 66°26' E 012°60'20 9.1
2016-Apr-30 23:22N 66°07' E 012°45'62 9.0
2016-Apr-30 16:30N 65°10' E 011°51'9 9.0
2016-Apr-30 15:33N 65°02' E 011°42'8 8.4
2016-Apr-30 14:33N 64°56' E 011°27'8 7.7
2016-Apr-30 13:33N 64°51' E 011°14'9 9.1
2016-Apr-30 12:33N 64°45' E 010°59'55 6.6
2016-Apr-30 04:10N 63°59' E 009°47'5 8.4
2016-Apr-30 03:33N 63°54' E 009°46'9 8.6
2016-Apr-30 02:33N 63°47' E 009°34'9 8.6
2016-Apr-30 01:33N 63°39' E 009°29'9 7.6
2016-Apr-30 00:26N 63°33' E 009°16'8 8.9
2016-Apr-29 23:33N 63°29' E 009°01'  

Dump ship's entire track history